Time;durP1;ratioP1;P1;durP2;ratioP2;P2;SDS_P1;SDS_P2;PMS_P1;PMS_P2;Temp;Humidity;BMP_temperature;BMP_pressure;BME280_temperature;BME280_humidity;BME280_pressure;Samples;Min_cycle;Max_cycle;Signal;HPM_P1;HPM_P2
2021/07/29 00:02:06;;;;;;;9.00;4.05;;;16.90;99.90;;;;;;5030205;28;20071;-69
2021/07/29 00:04:34;;;;;;;6.88;4.20;;;16.90;99.90;;;;;;5043588;28;20510;-69
2021/07/29 00:07:01;;;;;;;6.22;4.07;;;16.90;99.90;;;;;;5033153;28;20136;-69
2021/07/29 00:09:29;;;;;;;5.68;3.90;;;16.80;99.90;;;;;;5042533;28;20115;-69
2021/07/29 00:11:56;;;;;;;6.18;3.75;;;16.80;99.90;;;;;;5030849;28;20104;-69
2021/07/29 00:14:23;;;;;;;6.80;3.90;;;16.80;99.90;;;;;;5055191;28;20087;-69
2021/07/29 00:16:57;;;;;;;5.50;3.60;;;16.70;99.90;;;;;;5035940;28;20048;-69
2021/07/29 00:19:24;;;;;;;7.25;4.10;;;16.70;99.90;;;;;;5041832;28;20049;-69
2021/07/29 00:21:52;;;;;;;7.07;4.15;;;16.70;99.90;;;;;;5040966;28;20495;-69
2021/07/29 00:24:19;;;;;;;5.57;3.53;;;16.60;99.90;;;;;;5035056;28;20038;-69
2021/07/29 00:26:46;;;;;;;10.05;4.05;;;16.60;99.90;;;;;;5043198;28;20032;-69
2021/07/29 00:29:14;;;;;;;8.05;4.22;;;16.60;99.90;;;;;;5032446;28;20054;-69
2021/07/29 00:31:41;;;;;;;6.35;3.72;;;16.60;99.90;;;;;;5043347;28;20067;-69
2021/07/29 00:34:09;;;;;;;7.35;4.03;;;16.60;99.90;;;;;;5024047;28;20046;-69
2021/07/29 00:36:36;;;;;;;7.22;3.88;;;16.50;99.90;;;;;;5039485;28;20095;-69
2021/07/29 00:39:03;;;;;;;8.77;4.10;;;16.50;99.90;;;;;;5039685;28;20045;-69
2021/07/29 00:41:31;;;;;;;8.77;4.70;;;16.50;99.90;;;;;;5017050;28;20069;-69
2021/07/29 00:44:00;;;;;;;6.63;3.97;;;16.50;99.90;;;;;;5042904;28;20076;-69
2021/07/29 00:46:29;;;;;;;7.70;4.18;;;16.50;99.90;;;;;;5039138;28;20111;-69
2021/07/29 00:48:58;;;;;;;6.55;4.43;;;16.50;99.90;;;;;;5035605;28;20041;-69
2021/07/29 00:51:27;;;;;;;8.93;3.97;;;16.50;99.90;;;;;;5006821;28;20534;-69
2021/07/29 00:53:55;;;;;;;8.32;4.47;;;16.50;99.90;;;;;;5026877;28;20045;-70
2021/07/29 00:56:23;;;;;;;10.15;3.88;;;16.60;99.90;;;;;;5029870;28;20075;-70
2021/07/29 00:58:50;;;;;;;5.85;3.80;;;16.50;99.90;;;;;;5023840;28;20133;-69
2021/07/29 01:01:17;;;;;;;6.47;3.97;;;16.50;99.90;;;;;;5038363;28;20045;-69
2021/07/29 01:03:45;;;;;;;5.85;4.03;;;16.50;99.90;;;;;;5025478;28;20041;-70
2021/07/29 01:06:12;;;;;;;7.30;3.88;;;16.40;99.90;;;;;;5014122;28;20474;-69
2021/07/29 01:09:08;;;;;;;7.28;4.05;;;16.40;99.90;;;;;;5037393;28;20133;-69
2021/07/29 01:11:41;;;;;;;7.68;4.40;;;16.50;99.90;;;;;;5032492;28;20474;-69
2021/07/29 01:14:10;;;;;;;6.20;3.60;;;16.40;99.90;;;;;;5034714;28;20050;-69
2021/07/29 01:16:38;;;;;;;10.68;4.32;;;16.40;99.90;;;;;;5041577;28;20041;-69
2021/07/29 01:19:07;;;;;;;6.90;4.28;;;16.40;99.90;;;;;;5029463;28;20057;-69
2021/07/29 01:21:52;;;;;;;7.72;3.67;;;16.30;99.90;;;;;;5025986;28;20053;-70
2021/07/29 01:24:20;;;;;;;7.80;4.13;;;16.30;99.90;;;;;;5030168;28;20408;-70
2021/07/29 01:26:48;;;;;;;6.88;3.97;;;16.30;99.90;;;;;;5044129;28;20074;-69
2021/07/29 01:29:15;;;;;;;6.00;3.83;;;16.20;99.90;;;;;;5038174;28;20038;-69
2021/07/29 01:31:43;;;;;;;7.05;4.10;;;16.20;99.90;;;;;;5028655;28;20037;-69
2021/07/29 01:34:10;;;;;;;7.53;4.20;;;16.20;99.90;;;;;;5030096;28;20045;-69
2021/07/29 01:36:37;;;;;;;7.15;4.22;;;16.10;99.90;;;;;;5040893;28;20095;-69
2021/07/29 01:39:05;;;;;;;5.75;4.20;;;16.10;99.90;;;;;;5033514;28;20041;-69
2021/07/29 01:41:32;;;;;;;7.57;3.92;;;16.10;99.90;;;;;;5034109;28;20048;-69
2021/07/29 01:44:00;;;;;;;7.15;4.28;;;16.10;99.90;;;;;;5037319;28;20399;-69
2021/07/29 01:46:27;;;;;;;7.07;4.50;;;16.10;99.90;;;;;;5016925;28;20052;-69
2021/07/29 01:48:54;;;;;;;6.85;4.05;;;16.10;99.90;;;;;;5029648;28;20151;-69
2021/07/29 01:51:21;;;;;;;9.80;4.50;;;16.00;99.90;;;;;;5019132;28;20030;-69
2021/07/29 01:53:49;;;;;;;6.90;3.78;;;16.00;99.90;;;;;;5037355;28;20053;-69
2021/07/29 01:56:18;;;;;;;5.70;3.80;;;16.00;99.90;;;;;;5038863;28;20064;-69
2021/07/29 01:58:45;;;;;;;7.40;3.92;;;16.00;99.90;;;;;;5017108;28;20050;-69
2021/07/29 02:01:20;;;;;;;6.97;4.35;;;15.90;99.90;;;;;;5046220;28;20090;-69
2021/07/29 02:03:50;;;;;;;8.32;4.10;;;15.90;99.90;;;;;;5034344;28;20037;-69
2021/07/29 02:06:18;;;;;;;6.70;4.55;;;15.90;99.90;;;;;;5046034;28;20077;-69
2021/07/29 02:08:45;;;;;;;7.88;4.25;;;15.90;99.90;;;;;;5035202;28;20038;-69
2021/07/29 02:11:12;;;;;;;12.40;4.15;;;15.80;99.90;;;;;;5042808;28;20091;-69
2021/07/29 02:13:40;;;;;;;8.15;4.00;;;15.80;99.90;;;;;;5035070;28;20049;-69
2021/07/29 02:16:12;;;;;;;5.50;3.83;;;15.80;99.90;;;;;;5031771;28;20571;-69
2021/07/29 02:18:39;;;;;;;6.43;4.32;;;15.80;99.90;;;;;;5042484;28;20088;-69
2021/07/29 02:21:10;;;;;;;8.38;4.22;;;15.80;99.90;;;;;;5031164;28;20050;-69
2021/07/29 02:23:38;;;;;;;10.27;4.32;;;15.80;99.90;;;;;;5047992;28;20075;-69
2021/07/29 02:26:06;;;;;;;6.15;4.10;;;15.80;99.90;;;;;;5044621;28;20103;-69
2021/07/29 02:28:33;;;;;;;8.23;4.05;;;15.80;99.90;;;;;;5051026;28;20094;-69
2021/07/29 02:31:00;;;;;;;6.90;4.25;;;15.90;99.90;;;;;;5035904;28;20132;-69
2021/07/29 02:33:28;;;;;;;6.95;4.30;;;15.90;99.90;;;;;;5036550;28;20037;-69
2021/07/29 02:35:56;;;;;;;6.28;4.00;;;15.90;99.90;;;;;;5043074;28;20053;-70
2021/07/29 02:38:23;;;;;;;6.70;4.60;;;15.90;99.90;;;;;;5047642;28;20044;-69
2021/07/29 02:40:50;;;;;;;7.05;3.97;;;16.00;99.90;;;;;;5051238;28;20057;-68
2021/07/29 02:43:17;;;;;;;8.80;4.65;;;15.90;99.90;;;;;;5036281;28;20096;-68
2021/07/29 02:45:45;;;;;;;9.30;4.90;;;15.90;99.90;;;;;;5034960;28;20443;-68
2021/07/29 02:48:12;;;;;;;5.88;4.35;;;15.80;99.90;;;;;;5035221;28;20141;-68
2021/07/29 02:50:40;;;;;;;7.68;4.97;;;15.80;99.90;;;;;;5028474;28;20365;-68
2021/07/29 02:53:07;;;;;;;7.97;4.05;;;15.80;99.90;;;;;;5035369;28;20088;-68
2021/07/29 02:55:34;;;;;;;7.72;4.82;;;15.70;99.90;;;;;;5040345;28;20136;-68
2021/07/29 02:58:02;;;;;;;11.98;4.78;;;15.70;99.90;;;;;;5041793;28;20053;-68
2021/07/29 03:00:30;;;;;;;7.22;4.28;;;15.60;99.90;;;;;;5040978;28;20526;-68
2021/07/29 03:02:57;;;;;;;7.38;4.30;;;15.60;99.90;;;;;;5034078;28;20042;-68
2021/07/29 03:05:26;;;;;;;8.68;5.00;;;15.60;99.90;;;;;;5034642;28;20040;-68
2021/07/29 03:07:53;;;;;;;8.27;4.57;;;15.60;99.90;;;;;;5041105;28;20087;-68
2021/07/29 03:10:20;;;;;;;8.25;5.10;;;15.50;99.90;;;;;;5031874;28;20115;-68
2021/07/29 03:12:47;;;;;;;8.75;4.72;;;15.50;99.90;;;;;;5033399;28;20039;-68
2021/07/29 03:15:15;;;;;;;7.20;4.40;;;15.50;99.90;;;;;;5032099;28;20045;-68
2021/07/29 03:17:42;;;;;;;6.80;4.75;;;15.50;99.90;;;;;;5031266;28;20084;-68
2021/07/29 03:20:11;;;;;;;9.10;4.88;;;15.40;99.90;;;;;;5043617;28;20068;-68
2021/07/29 03:22:38;;;;;;;7.25;4.63;;;15.40;99.90;;;;;;5036650;28;20041;-68
2021/07/29 03:25:06;;;;;;;9.40;4.72;;;15.40;99.90;;;;;;5024856;28;20029;-69
2021/07/29 03:27:33;;;;;;;8.10;4.53;;;15.40;99.90;;;;;;5027900;28;20099;-68
2021/07/29 03:30:00;;;;;;;7.57;5.18;;;15.40;99.90;;;;;;5029254;28;20095;-70
2021/07/29 03:32:29;;;;;;;6.97;4.72;;;15.40;99.90;;;;;;5017836;28;20065;-68
2021/07/29 03:34:56;;;;;;;9.10;5.28;;;15.40;99.90;;;;;;5042127;28;20041;-70
2021/07/29 03:37:23;;;;;;;6.47;4.70;;;15.40;99.90;;;;;;5036857;28;20137;-70
2021/07/29 03:39:51;;;;;;;7.63;5.18;;;15.40;99.90;;;;;;5036809;28;20072;-69
2021/07/29 03:42:22;;;;;;;7.28;4.93;;;15.40;99.90;;;;;;5041008;28;20329;-70
2021/07/29 03:44:49;;;;;;;8.63;5.33;;;15.40;99.90;;;;;;5024744;28;20085;-69
2021/07/29 03:47:16;;;;;;;7.82;5.30;;;15.40;99.90;;;;;;5021216;28;20068;-70
2021/07/29 03:49:44;;;;;;;9.27;5.32;;;15.40;99.90;;;;;;5031637;28;20088;-70
2021/07/29 03:52:11;;;;;;;8.18;4.93;;;15.40;99.90;;;;;;5029737;28;20080;-68
2021/07/29 03:54:38;;;;;;;10.32;5.45;;;15.40;99.90;;;;;;5039351;28;20089;-67
2021/07/29 03:57:08;;;;;;;9.63;5.65;;;15.40;99.90;;;;;;5045468;28;20042;-67
2021/07/29 03:59:36;;;;;;;6.90;4.50;;;15.40;99.90;;;;;;5044993;28;20094;-69
2021/07/29 04:02:10;;;;;;;9.88;5.30;;;15.40;99.90;;;;;;5045129;28;20073;-68
2021/07/29 04:04:39;;;;;;;8.90;5.65;;;15.40;99.90;;;;;;5012104;28;20042;-68
2021/07/29 04:07:07;;;;;;;9.20;5.32;;;15.40;99.90;;;;;;5025811;28;20506;-68
2021/07/29 04:09:36;;;;;;;6.75;4.97;;;15.40;99.90;;;;;;5032831;28;20123;-68
2021/07/29 04:12:05;;;;;;;11.80;5.30;;;15.50;99.90;;;;;;5034985;28;20041;-68
2021/07/29 04:14:33;;;;;;;8.60;5.20;;;15.60;99.90;;;;;;5030660;28;20041;-68
2021/07/29 04:17:01;;;;;;;9.00;5.43;;;15.60;99.90;;;;;;5035031;28;20136;-69
2021/07/29 04:19:33;;;;;;;9.60;5.47;;;15.60;99.90;;;;;;5016095;28;20091;-68
2021/07/29 04:22:01;;;;;;;7.72;5.25;;;15.70;99.90;;;;;;5025154;28;20055;-68
2021/07/29 04:24:28;;;;;;;7.60;5.50;;;15.80;99.90;;;;;;5031580;28;20076;-69
2021/07/29 04:26:57;;;;;;;9.30;6.00;;;15.80;99.90;;;;;;5038512;28;20077;-68
2021/07/29 04:29:25;;;;;;;8.88;5.70;;;15.80;99.90;;;;;;5018480;28;20046;-68
2021/07/29 04:31:54;;;;;;;10.77;6.05;;;15.90;99.90;;;;;;5043077;28;20049;-68
2021/07/29 04:34:21;;;;;;;8.32;5.53;;;16.00;99.90;;;;;;5037255;28;20136;-68
2021/07/29 04:36:48;;;;;;;10.80;6.80;;;16.00;99.90;;;;;;5035815;28;20107;-69
2021/07/29 04:39:16;;;;;;;8.73;5.72;;;16.10;99.90;;;;;;5048625;28;20050;-68
2021/07/29 04:41:44;;;;;;;9.70;5.72;;;16.10;99.90;;;;;;5026638;28;20500;-68
2021/07/29 04:44:13;;;;;;;10.90;5.78;;;16.10;99.90;;;;;;5032372;28;20083;-68
2021/07/29 04:46:42;;;;;;;12.57;6.40;;;16.20;99.90;;;;;;5045068;28;20512;-69
2021/07/29 04:49:11;;;;;;;10.52;6.70;;;16.20;99.90;;;;;;5032752;28;20447;-69
2021/07/29 04:51:41;;;;;;;9.77;6.30;;;16.30;99.90;;;;;;5024776;28;20034;-68
2021/07/29 04:54:08;;;;;;;9.02;6.03;;;16.30;99.90;;;;;;5016628;28;20131;-68
2021/07/29 04:56:35;;;;;;;8.02;6.35;;;16.40;99.90;;;;;;5035925;28;20041;-68
2021/07/29 04:59:03;;;;;;;10.05;6.13;;;16.40;99.90;;;;;;5038827;28;20439;-68
2021/07/29 05:01:30;;;;;;;10.10;5.78;;;16.50;99.90;;;;;;5049928;28;20044;-69
2021/07/29 05:04:02;;;;;;;7.35;5.53;;;16.60;99.90;;;;;;5045714;28;20050;-69
2021/07/29 05:06:30;;;;;;;10.63;8.23;;;16.60;99.90;;;;;;5048308;28;20095;-69
2021/07/29 05:08:57;;;;;;;17.23;9.25;;;16.70;99.90;;;;;;5047121;28;20098;-69
2021/07/29 05:11:24;;;;;;;11.02;9.35;;;16.60;99.90;;;;;;5049952;28;20039;-69
2021/07/29 05:13:53;;;;;;;10.77;8.10;;;16.70;99.90;;;;;;5036291;28;20069;-69
2021/07/29 05:16:21;;;;;;;13.77;7.45;;;16.80;99.90;;;;;;5048964;28;20047;-69
2021/07/29 05:18:49;;;;;;;9.50;7.00;;;16.80;99.90;;;;;;5047809;28;20573;-69
2021/07/29 05:21:17;;;;;;;11.10;6.53;;;16.80;99.90;;;;;;5029367;28;20041;-69
2021/07/29 05:23:44;;;;;;;13.73;7.53;;;16.80;99.90;;;;;;5046891;28;20128;-68
2021/07/29 05:26:17;;;;;;;9.50;6.28;;;16.90;99.90;;;;;;5046879;28;20101;-69
2021/07/29 05:28:46;;;;;;;10.00;7.25;;;16.90;99.90;;;;;;5053671;28;20142;-69
2021/07/29 05:31:13;;;;;;;9.85;6.25;;;17.00;99.90;;;;;;5051032;28;20119;-70
2021/07/29 05:33:41;;;;;;;9.13;6.13;;;17.00;99.90;;;;;;5050749;28;20132;-70
2021/07/29 05:36:08;;;;;;;10.68;6.45;;;17.10;99.90;;;;;;5045438;28;20091;-69
2021/07/29 05:38:36;;;;;;;12.68;6.38;;;17.10;99.90;;;;;;5053175;28;20506;-69
2021/07/29 05:41:08;;;;;;;9.73;5.65;;;17.20;99.90;;;;;;5050998;28;20437;-68
2021/07/29 05:43:37;;;;;;;9.75;5.30;;;17.30;99.90;;;;;;5052514;28;20128;-68
2021/07/29 05:46:12;;;;;;;11.68;6.35;;;17.30;99.90;;;;;;5026861;28;20120;-68
2021/07/29 05:48:40;;;;;;;8.48;5.00;;;17.30;99.90;;;;;;5020951;28;20046;-68
2021/07/29 05:51:08;;;;;;;11.77;5.85;;;17.40;99.90;;;;;;5017273;28;20120;-68
2021/07/29 05:53:35;;;;;;;10.13;5.22;;;17.40;99.90;;;;;;5023021;28;20071;-68
2021/07/29 05:56:03;;;;;;;8.82;5.28;;;17.50;99.90;;;;;;5039890;28;20041;-68
2021/07/29 05:58:30;;;;;;;9.98;5.07;;;17.50;99.90;;;;;;5036021;28;20041;-68
2021/07/29 06:00:58;;;;;;;7.35;4.70;;;17.60;99.90;;;;;;5046993;28;20067;-68
2021/07/29 06:03:26;;;;;;;7.88;5.40;;;17.60;99.90;;;;;;5038439;28;20041;-68
2021/07/29 06:05:55;;;;;;;9.23;4.50;;;17.70;99.90;;;;;;5043697;28;20068;-68
2021/07/29 06:08:23;;;;;;;11.60;5.05;;;17.80;99.90;;;;;;5039925;28;20056;-68
2021/07/29 06:10:50;;;;;;;7.40;4.63;;;17.90;99.90;;;;;;5040219;28;20033;-68
2021/07/29 06:13:17;;;;;;;7.45;4.70;;;18.00;99.90;;;;;;5041051;28;20049;-69
2021/07/29 06:15:45;;;;;;;7.05;4.22;;;18.10;99.90;;;;;;5037069;28;20052;-69
2021/07/29 06:18:13;;;;;;;8.05;4.75;;;18.30;99.90;;;;;;5032753;28;20041;-68
2021/07/29 06:20:41;;;;;;;11.82;4.60;;;18.60;99.90;;;;;;5027572;28;20083;-69
2021/07/29 06:23:08;;;;;;;6.00;3.83;;;18.80;99.90;;;;;;5027422;28;20433;-69
2021/07/29 06:25:40;;;;;;;6.10;4.05;;;18.90;99.90;;;;;;5017556;28;20076;-70
2021/07/29 06:28:13;;;;;;;7.07;4.18;;;19.00;99.90;;;;;;5043135;28;20072;-70
2021/07/29 06:30:44;;;;;;;11.15;4.18;;;19.20;99.90;;;;;;5033886;28;20120;-70
2021/07/29 06:33:11;;;;;;;7.50;4.82;;;19.40;99.90;;;;;;5041239;28;20091;-70
2021/07/29 06:35:38;;;;;;;5.95;3.80;;;19.70;99.90;;;;;;5044396;28;20124;-70
2021/07/29 06:38:06;;;;;;;8.52;4.47;;;19.90;99.90;;;;;;5010419;28;20839;-69
2021/07/29 06:40:33;;;;;;;6.22;3.58;;;20.00;99.90;;;;;;5038209;28;20558;-70
2021/07/29 06:43:00;;;;;;;6.45;3.50;;;20.20;99.90;;;;;;5030240;28;20041;-70
2021/07/29 06:45:27;;;;;;;6.85;3.60;;;20.30;99.90;;;;;;5023127;28;20049;-70
2021/07/29 06:47:55;;;;;;;8.50;4.38;;;20.30;99.90;;;;;;5039155;28;20132;-70
2021/07/29 06:50:22;;;;;;;7.38;3.60;;;20.50;99.90;;;;;;5034595;28;20084;-70
2021/07/29 06:52:49;;;;;;;8.70;4.70;;;20.50;99.90;;;;;;5033624;28;20045;-70
2021/07/29 06:55:17;;;;;;;6.35;3.70;;;20.50;99.90;;;;;;5031488;28;20042;-70
2021/07/29 06:57:44;;;;;;;6.80;4.50;;;20.70;99.90;;;;;;5024870;28;20084;-71
2021/07/29 07:00:12;;;;;;;10.02;4.30;;;20.90;99.90;;;;;;5015229;28;20103;-71
2021/07/29 07:02:39;;;;;;;7.28;3.47;;;20.90;99.90;;;;;;5018245;28;20142;-71
2021/07/29 07:05:10;;;;;;;7.43;3.80;;;20.70;99.90;;;;;;5029341;28;20045;-71
2021/07/29 07:07:37;;;;;;;7.05;3.47;;;20.60;99.90;;;;;;5030925;28;20148;-71
2021/07/29 07:10:05;;;;;;;7.32;4.05;;;20.70;99.90;;;;;;5020672;28;20037;-71
2021/07/29 07:12:34;;;;;;;5.25;3.55;;;20.80;99.90;;;;;;5045215;28;20050;-73
2021/07/29 07:15:01;;;;;;;6.35;3.97;;;21.00;99.90;;;;;;5044716;28;20075;-71
2021/07/29 07:17:29;;;;;;;7.88;3.75;;;21.20;99.90;;;;;;5043547;28;20133;-71
2021/07/29 07:20:00;;;;;;;7.22;4.50;;;21.40;99.90;;;;;;5039976;28;20205;-71
2021/07/29 07:22:27;;;;;;;6.97;3.75;;;21.50;99.90;;;;;;5031058;28;20280;-71
2021/07/29 07:24:56;;;;;;;8.25;4.10;;;21.60;99.90;;;;;;5028117;28;20073;-71
2021/07/29 07:27:24;;;;;;;7.95;3.72;;;21.90;99.90;;;;;;5031313;28;20503;-71
2021/07/29 07:29:51;;;;;;;6.57;3.75;;;22.00;99.90;;;;;;5021731;28;20128;-71
2021/07/29 07:32:18;;;;;;;8.35;3.92;;;22.10;99.90;;;;;;5035963;28;20052;-71
2021/07/29 07:34:46;;;;;;;6.78;3.97;;;22.20;99.90;;;;;;5020483;28;20061;-71
2021/07/29 07:37:17;;;;;;;7.40;3.38;;;22.10;99.90;;;;;;5030872;28;20444;-71
2021/07/29 07:39:45;;;;;;;5.97;2.92;;;22.10;99.90;;;;;;5027077;28;20399;-71
2021/07/29 07:42:12;;;;;;;6.50;3.17;;;22.20;99.90;;;;;;5015186;28;20053;-68
2021/07/29 07:44:39;;;;;;;5.65;3.50;;;22.50;99.90;;;;;;5019328;28;20088;-69
2021/07/29 07:47:07;;;;;;;7.15;3.08;;;22.60;99.90;;;;;;5024945;28;20500;-71
2021/07/29 07:49:35;;;;;;;5.53;3.53;;;22.50;99.90;;;;;;5026766;28;20042;-71
2021/07/29 07:52:03;;;;;;;6.32;3.13;;;22.50;99.90;;;;;;5023999;28;20435;-71
2021/07/29 07:54:31;;;;;;;5.97;3.50;;;22.40;99.90;;;;;;5037592;28;20181;-71
2021/07/29 07:56:58;;;;;;;5.28;3.05;;;22.40;99.90;;;;;;5027184;28;20045;-70
2021/07/29 07:59:25;;;;;;;7.68;3.40;;;22.20;99.90;;;;;;5028847;28;20104;-71
2021/07/29 08:01:52;;;;;;;5.00;2.92;;;22.20;99.90;;;;;;5019440;28;20129;-71
2021/07/29 08:04:20;;;;;;;6.28;3.80;;;22.00;99.90;;;;;;5034470;28;20048;-71
2021/07/29 08:06:47;;;;;;;6.45;3.50;;;21.80;99.90;;;;;;5029885;28;20045;-70
2021/07/29 08:09:15;;;;;;;8.27;3.30;;;21.80;99.90;;;;;;5035264;28;20041;-71
2021/07/29 08:11:42;;;;;;;5.82;3.63;;;21.60;99.90;;;;;;5023769;28;20052;-71
2021/07/29 08:14:09;;;;;;;5.85;3.20;;;21.70;99.90;;;;;;5029920;28;20111;-71
2021/07/29 08:16:37;;;;;;;6.68;3.22;;;21.90;99.90;;;;;;5019005;28;20041;-71
2021/07/29 08:19:05;;;;;;;6.38;3.33;;;21.80;99.90;;;;;;5026852;28;20662;-70
2021/07/29 08:21:33;;;;;;;5.00;3.38;;;21.90;99.90;;;;;;5020845;28;20598;-71
2021/07/29 08:24:01;;;;;;;6.65;3.30;;;21.80;99.90;;;;;;5037415;28;20045;-71
2021/07/29 08:26:28;;;;;;;7.20;3.08;;;21.90;99.90;;;;;;5026873;28;20033;-71
2021/07/29 08:28:57;;;;;;;5.57;3.20;;;21.90;99.90;;;;;;5014824;28;20269;-71
2021/07/29 08:31:24;;;;;;;7.95;3.10;;;22.10;99.90;;;;;;5031676;28;20104;-71
2021/07/29 08:33:52;;;;;;;6.82;3.03;;;22.00;99.90;;;;;;5027891;28;20053;-72
2021/07/29 08:36:20;;;;;;;8.82;3.20;;;22.00;99.90;;;;;;5012179;28;20080;-71
2021/07/29 08:38:49;;;;;;;5.57;3.08;;;22.20;99.90;;;;;;5016817;28;20060;-69
2021/07/29 08:41:18;;;;;;;5.60;2.70;;;22.30;99.90;;;;;;5028885;28;20037;-70
2021/07/29 08:43:48;;;;;;;6.85;2.83;;;22.20;99.90;;;;;;5018635;28;20086;-69
2021/07/29 08:46:20;;;;;;;8.80;3.13;;;22.10;99.90;;;;;;5012931;28;20042;-70
2021/07/29 08:48:50;;;;;;;5.20;3.30;;;22.00;99.90;;;;;;5027388;28;20042;-69
2021/07/29 08:51:22;;;;;;;6.93;3.20;;;22.10;99.90;;;;;;4994889;28;20049;-69
2021/07/29 08:53:50;;;;;;;6.10;3.20;;;22.20;99.90;;;;;;5026904;28;20038;-69
2021/07/29 08:56:23;;;;;;;6.30;3.03;;;22.40;99.90;;;;;;5011532;28;20045;-69
2021/07/29 08:58:54;;;;;;;8.38;3.10;;;22.30;99.90;;;;;;5028343;28;20068;-69
2021/07/29 09:01:42;;;;;;;6.13;3.35;;;22.40;99.90;;;;;;5028811;28;20045;-69
2021/07/29 09:04:14;;;;;;;5.45;2.95;;;22.50;99.90;;;;;;5020627;28;20037;-69
2021/07/29 09:07:02;;;;;;;6.50;3.30;;;22.60;99.90;;;;;;5031113;28;20339;-70
2021/07/29 09:09:48;;;;;;;6.55;3.20;;;22.50;99.90;;;;;;5036276;28;20051;-69
2021/07/29 09:12:16;;;;;;;8.23;3.50;;;22.30;99.90;;;;;;5029586;28;20404;-69
2021/07/29 09:14:45;;;;;;;5.88;3.42;;;22.30;99.90;;;;;;5034313;28;20045;-69
2021/07/29 09:17:13;;;;;;;5.43;2.97;;;22.30;99.90;;;;;;5041217;28;20060;-69
2021/07/29 09:19:44;;;;;;;5.18;3.40;;;22.40;99.90;;;;;;5045456;28;20045;-69
2021/07/29 09:22:19;;;;;;;6.35;3.60;;;22.70;99.90;;;;;;5036292;28;20432;-67
2021/07/29 09:25:01;;;;;;;6.97;3.25;;;22.80;99.90;;;;;;5040380;28;20041;-67
2021/07/29 09:27:38;;;;;;;7.25;3.47;;;23.10;99.90;;;;;;5024946;28;20412;-68
2021/07/29 09:30:19;;;;;;;5.88;3.42;;;23.20;99.90;;;;;;5028034;28;20038;-68
2021/07/29 09:32:59;;;;;;;6.63;3.00;;;23.20;99.90;;;;;;5028024;28;20049;-68
2021/07/29 09:35:32;;;;;;;7.35;3.88;;;23.00;99.90;;;;;;5032639;28;20128;-67
2021/07/29 09:38:05;;;;;;;5.82;3.28;;;22.90;99.90;;;;;;5031872;28;20052;-67
2021/07/29 09:41:00;;;;;;;5.28;3.53;;;23.20;99.90;;;;;;5028337;28;20057;-68
2021/07/29 09:43:38;;;;;;;6.35;3.33;;;23.20;99.90;;;;;;5034458;28;20049;-68
2021/07/29 09:46:19;;;;;;;6.75;3.45;;;23.20;99.90;;;;;;5042904;28;20041;-68
2021/07/29 09:48:47;;;;;;;9.23;3.45;;;23.20;99.90;;;;;;5032561;28;20086;-69
2021/07/29 09:51:15;;;;;;;7.45;3.80;;;23.30;99.90;;;;;;5029197;28;20049;-68
2021/07/29 09:53:44;;;;;;;5.60;3.70;;;23.30;99.90;;;;;;5028612;28;20040;-68
2021/07/29 09:56:13;;;;;;;7.93;4.05;;;23.30;99.90;;;;;;5034099;28;20411;-67
2021/07/29 09:59:03;;;;;;;6.63;3.83;;;23.30;99.90;;;;;;5039065;28;20500;-68
2021/07/29 10:01:31;;;;;;;7.55;3.50;;;23.10;99.90;;;;;;5040226;28;20045;-67
2021/07/29 10:04:02;;;;;;;5.97;3.42;;;23.00;99.90;;;;;;5009584;28;20057;-68
2021/07/29 10:06:34;;;;;;;6.25;3.67;;;23.00;99.90;;;;;;5019689;28;20461;-68
2021/07/29 10:09:11;;;;;;;5.70;3.38;;;23.00;99.90;;;;;;5029117;28;20459;-68
2021/07/29 10:11:43;;;;;;;6.13;3.60;;;23.00;99.90;;;;;;5020896;28;20041;-67
2021/07/29 10:14:11;;;;;;;;;;;23.10;99.90;;;;;;5036438;28;20072;-68
2021/07/29 10:16:48;;;;;;;7.53;3.80;;;23.50;99.90;;;;;;5038138;28;19925;-68
2021/07/29 10:19:19;;;;;;;6.65;3.60;;;23.70;99.90;;;;;;5051924;28;20067;-68
2021/07/29 10:21:47;;;;;;;6.93;3.50;;;23.80;99.90;;;;;;5051731;28;20099;-68
2021/07/29 10:24:14;;;;;;;6.15;3.50;;;23.70;99.90;;;;;;5039778;28;20095;-68
2021/07/29 10:27:00;;;;;;;6.68;3.92;;;23.50;99.90;;;;;;5040668;28;20041;-68
2021/07/29 10:29:31;;;;;;;5.65;3.72;;;23.50;99.90;;;;;;5047559;28;20037;-68
2021/07/29 10:32:11;;;;;;;10.18;3.47;;;23.50;99.90;;;;;;5042711;28;20492;-67
2021/07/29 10:34:39;;;;;;;6.85;3.58;;;23.80;99.90;;;;;;5038345;28;20063;-67
2021/07/29 10:37:08;;;;;;;5.70;3.45;;;23.60;99.90;;;;;;5040542;28;20049;-68
2021/07/29 10:39:59;;;;;;;6.47;3.83;;;23.30;99.90;;;;;;5030465;28;20053;-67
2021/07/29 10:42:30;;;;;;;6.00;3.78;;;22.90;99.90;;;;;;5037607;28;20137;-67
2021/07/29 10:44:58;;;;;;;7.93;3.60;;;23.00;99.90;;;;;;5040624;28;20106;-68
2021/07/29 10:47:36;;;;;;;5.10;3.45;;;23.10;99.90;;;;;;5038348;28;20484;-67
2021/07/29 10:50:06;;;;;;;6.00;3.40;;;23.50;99.90;;;;;;5032542;28;20048;-69
2021/07/29 10:52:34;;;;;;;6.90;3.50;;;23.70;99.90;;;;;;5036657;28;20554;-67
2021/07/29 10:55:02;;;;;;;8.63;3.85;;;23.90;99.90;;;;;;5031057;28;20041;-68
2021/07/29 10:57:30;;;;;;;6.80;3.75;;;24.00;99.90;;;;;;5039072;28;20056;-68
2021/07/29 10:59:59;;;;;;;6.47;3.60;;;24.20;99.90;;;;;;5041532;28;20095;-69
2021/07/29 11:02:49;;;;;;;9.65;3.40;;;24.40;99.90;;;;;;5036007;28;20044;-68
2021/07/29 11:05:21;;;;;;;6.75;3.88;;;24.90;99.90;;;;;;5029624;28;20033;-67
2021/07/29 11:07:49;;;;;;;6.10;3.70;;;24.90;99.90;;;;;;5034452;28;20127;-67
2021/07/29 11:10:21;;;;;;;9.02;3.38;;;24.90;99.90;;;;;;5039967;28;20072;-68
2021/07/29 11:12:48;;;;;;;7.03;3.72;;;24.70;99.90;;;;;;5039284;28;20037;-66
2021/07/29 11:15:16;;;;;;;7.38;3.15;;;24.60;99.90;;;;;;5037559;28;20074;-67
2021/07/29 11:17:43;;;;;;;5.25;3.33;;;24.30;99.90;;;;;;5035447;28;20053;-66
2021/07/29 11:20:11;;;;;;;5.68;3.22;;;24.10;99.90;;;;;;5031413;28;20504;-67
2021/07/29 11:22:46;;;;;;;7.97;3.90;;;24.20;99.90;;;;;;5036120;28;20049;-66
2021/07/29 11:25:14;;;;;;;5.35;3.38;;;24.60;99.90;;;;;;5034268;28;20500;-68
2021/07/29 11:27:42;;;;;;;9.20;3.80;;;24.60;99.90;;;;;;5032843;28;20042;-68
2021/07/29 11:30:12;;;;;;;7.05;3.50;;;24.40;99.90;;;;;;5035906;28;20038;-69
2021/07/29 11:32:40;;;;;;;5.82;3.35;;;24.60;99.90;;;;;;5032746;28;20056;-69
2021/07/29 11:35:10;;;;;;;5.30;3.28;;;24.90;99.90;;;;;;5018574;28;20096;-68
2021/07/29 11:37:40;;;;;;;10.00;3.83;;;25.30;99.90;;;;;;5013604;28;20095;-68
2021/07/29 11:40:18;;;;;;;7.65;3.58;;;25.10;99.90;;;;;;5022947;28;20037;-68
2021/07/29 11:42:45;;;;;;;7.43;3.85;;;25.10;99.90;;;;;;5031972;28;20049;-69
2021/07/29 11:45:32;;;;;;;6.57;3.83;;;25.70;99.90;;;;;;5029498;28;20125;-68
2021/07/29 11:48:00;;;;;;;6.60;4.18;;;26.10;99.90;;;;;;5035396;28;20204;-68
2021/07/29 11:50:38;;;;;;;8.40;3.90;;;26.20;99.90;;;;;;5014139;28;20042;-68
2021/07/29 11:53:06;;;;;;;8.15;3.95;;;25.50;99.90;;;;;;5032370;28;20443;-68
2021/07/29 11:55:35;;;;;;;6.20;3.58;;;25.20;99.90;;;;;;5029877;28;20385;-68
2021/07/29 11:58:06;;;;;;;9.57;3.35;;;25.10;99.90;;;;;;5029961;28;20053;-69
2021/07/29 12:00:35;;;;;;;7.85;3.40;;;25.20;99.90;;;;;;5020417;28;20049;-68
2021/07/29 12:03:04;;;;;;;7.05;3.60;;;25.70;99.90;;;;;;5003489;28;20056;-69
2021/07/29 12:05:34;;;;;;;7.72;3.45;;;26.00;99.90;;;;;;5031964;28;20033;-68
2021/07/29 12:08:03;;;;;;;5.65;3.28;;;26.10;99.90;;;;;;5036802;28;20045;-67
2021/07/29 12:10:32;;;;;;;6.43;3.75;;;25.50;99.90;;;;;;5031514;28;20069;-67
2021/07/29 12:13:01;;;;;;;4.82;3.05;;;25.70;99.90;;;;;;5022727;28;20041;-67
2021/07/29 12:15:28;;;;;;;5.80;3.80;;;25.80;99.90;;;;;;5034603;28;20092;-68
2021/07/29 12:18:16;;;;;;;5.03;3.15;;;25.80;99.90;;;;;;5023731;28;20037;-68
2021/07/29 12:20:45;;;;;;;6.95;3.50;;;25.70;99.90;;;;;;5031638;28;20107;-68
2021/07/29 12:23:13;;;;;;;5.32;3.13;;;26.30;99.90;;;;;;5041854;28;20102;-72
2021/07/29 12:25:41;;;;;;;6.03;3.22;;;26.30;99.90;;;;;;5039502;28;20095;-68
2021/07/29 12:28:09;;;;;;;5.78;3.53;;;26.20;99.90;;;;;;5040802;28;20430;-68
2021/07/29 12:30:39;;;;;;;8.35;3.60;;;26.30;99.90;;;;;;5038197;28;20044;-68
2021/07/29 12:33:14;;;;;;;7.20;3.20;;;26.40;99.90;;;;;;5039351;28;20433;-68
2021/07/29 12:35:56;;;;;;;5.80;3.47;;;26.50;99.90;;;;;;5024635;28;20041;-69
2021/07/29 12:38:37;;;;;;;5.18;3.15;;;26.20;99.90;;;;;;5031052;28;20099;-68
2021/07/29 12:41:06;;;;;;;8.80;3.17;;;26.20;99.90;;;;;;5029286;28;20451;-68
2021/07/29 12:43:34;;;;;;;5.90;3.70;;;26.50;99.90;;;;;;5030573;28;20445;-68
2021/07/29 12:46:07;;;;;;;6.13;3.50;;;26.80;99.90;;;;;;5030409;28;20104;-67
2021/07/29 12:48:56;;;;;;;6.40;3.30;;;27.40;99.90;;;;;;5029929;28;20073;-68
2021/07/29 12:51:44;;;;;;;4.63;3.00;;;27.80;99.90;;;;;;5013406;28;20060;-68
2021/07/29 12:54:17;;;;;;;5.78;3.10;;;27.30;99.90;;;;;;5030948;28;20462;-68
2021/07/29 12:56:45;;;;;;;5.97;3.40;;;27.00;99.90;;;;;;5034856;28;20454;-68
2021/07/29 12:59:13;;;;;;;8.10;3.22;;;27.60;99.90;;;;;;5021761;28;20040;-68